< < Back
Terminal Aerodrome Forecast


Current Version              Previous Versions:   1  2  3  4  5  6  7  8  9  

Terminal Aerodrome Forecast

026
FTUS42 KFFC 242300
TAFATL
TAF
KATL 242332Z 2500/2606 16006KT P6SM SCT070 SCT250
     FM250800 20007KT P6SM BKN050
     FM251200 23010KT P6SM SCT025 BKN050
     FM251500 24010G18KT P6SM BKN025
     FM251800 27012G20KT P6SM SCT040
     FM260000 30010KT P6SM SKC=

Latest METAR

623
SAUS70 KWBC 250100
MTRATL
METAR KATL 250052Z 17005KT 10SM FEW200 BKN250 22/09 A2991 RMK AO2 SLP122
T02220094


USA.gov is the U.S. government's official web portal to all federal, state and local government web resources and services.